sensor_id;sensor_type;location;lat;lon;timestamp;temperature;humidity
11538;DHT22;50159;49.426;11.182;2023-07-02T00:02:15;18.00;99.90
11538;DHT22;50159;49.426;11.182;2023-07-02T00:04:46;18.00;99.90
11538;DHT22;50159;49.426;11.182;2023-07-02T00:07:13;18.00;99.90
11538;DHT22;50159;49.426;11.182;2023-07-02T00:09:41;17.90;99.90
11538;DHT22;50159;49.426;11.182;2023-07-02T00:12:08;18.00;99.90
11538;DHT22;50159;49.426;11.182;2023-07-02T00:14:35;17.90;99.90
11538;DHT22;50159;49.426;11.182;2023-07-02T00:17:01;17.90;99.90
11538;DHT22;50159;49.426;11.182;2023-07-02T00:19:28;17.90;99.90
11538;DHT22;50159;49.426;11.182;2023-07-02T00:21:55;17.90;99.90
11538;DHT22;50159;49.426;11.182;2023-07-02T00:24:22;17.90;99.90
11538;DHT22;50159;49.426;11.182;2023-07-02T00:26:49;17.90;99.90
11538;DHT22;50159;49.426;11.182;2023-07-02T00:29:16;17.90;99.90
11538;DHT22;50159;49.426;11.182;2023-07-02T00:31:42;17.90;99.90
11538;DHT22;50159;49.426;11.182;2023-07-02T00:34:09;17.80;99.90
11538;DHT22;50159;49.426;11.182;2023-07-02T00:36:36;17.80;99.90
11538;DHT22;50159;49.426;11.182;2023-07-02T00:39:02;17.70;99.90
11538;DHT22;50159;49.426;11.182;2023-07-02T00:41:29;17.70;99.90
11538;DHT22;50159;49.426;11.182;2023-07-02T00:43:56;17.60;99.90
11538;DHT22;50159;49.426;11.182;2023-07-02T00:46:24;17.60;99.90
11538;DHT22;50159;49.426;11.182;2023-07-02T00:48:54;17.60;99.90
11538;DHT22;50159;49.426;11.182;2023-07-02T00:51:23;17.60;99.90
11538;DHT22;50159;49.426;11.182;2023-07-02T00:53:52;17.60;99.90
11538;DHT22;50159;49.426;11.182;2023-07-02T00:56:19;17.60;99.90
11538;DHT22;50159;49.426;11.182;2023-07-02T00:58:47;17.60;99.90
11538;DHT22;50159;49.426;11.182;2023-07-02T01:01:22;17.60;99.90
11538;DHT22;50159;49.426;11.182;2023-07-02T01:04:00;17.60;99.90
11538;DHT22;50159;49.426;11.182;2023-07-02T01:06:29;17.60;99.90
11538;DHT22;50159;49.426;11.182;2023-07-02T01:09:01;17.60;99.90
11538;DHT22;50159;49.426;11.182;2023-07-02T01:11:30;17.60;99.90
11538;DHT22;50159;49.426;11.182;2023-07-02T01:14:24;17.60;99.90
11538;DHT22;50159;49.426;11.182;2023-07-02T01:16:53;17.60;99.90
11538;DHT22;50159;49.426;11.182;2023-07-02T01:19:39;17.70;99.90
11538;DHT22;50159;49.426;11.182;2023-07-02T01:22:09;17.70;99.90
11538;DHT22;50159;49.426;11.182;2023-07-02T01:24:36;17.70;99.90
11538;DHT22;50159;49.426;11.182;2023-07-02T01:27:03;17.70;99.90
11538;DHT22;50159;49.426;11.182;2023-07-02T01:29:31;17.70;99.90
11538;DHT22;50159;49.426;11.182;2023-07-02T01:31:58;17.70;99.90
11538;DHT22;50159;49.426;11.182;2023-07-02T01:34:25;17.70;99.90
11538;DHT22;50159;49.426;11.182;2023-07-02T01:36:52;17.70;99.90
11538;DHT22;50159;49.426;11.182;2023-07-02T01:39:18;17.70;99.90
11538;DHT22;50159;49.426;11.182;2023-07-02T01:41:54;17.70;99.90
11538;DHT22;50159;49.426;11.182;2023-07-02T01:44:22;17.70;99.90
11538;DHT22;50159;49.426;11.182;2023-07-02T01:46:48;17.70;99.90
11538;DHT22;50159;49.426;11.182;2023-07-02T01:49:19;17.70;99.90
11538;DHT22;50159;49.426;11.182;2023-07-02T01:51:49;17.70;99.90
11538;DHT22;50159;49.426;11.182;2023-07-02T01:54:18;17.70;99.90
11538;DHT22;50159;49.426;11.182;2023-07-02T01:56:45;17.70;99.90
11538;DHT22;50159;49.426;11.182;2023-07-02T01:59:12;17.70;99.90
11538;DHT22;50159;49.426;11.182;2023-07-02T02:01:39;17.70;99.90
11538;DHT22;50159;49.426;11.182;2023-07-02T02:04:10;17.70;99.90
11538;DHT22;50159;49.426;11.182;2023-07-02T02:06:37;17.60;99.90
11538;DHT22;50159;49.426;11.182;2023-07-02T02:09:05;17.60;99.90
11538;DHT22;50159;49.426;11.182;2023-07-02T02:11:33;17.50;99.90
11538;DHT22;50159;49.426;11.182;2023-07-02T02:14:00;17.50;99.90
11538;DHT22;50159;49.426;11.182;2023-07-02T02:16:30;17.50;99.90
11538;DHT22;50159;49.426;11.182;2023-07-02T02:18:57;17.50;99.90
11538;DHT22;50159;49.426;11.182;2023-07-02T02:21:23;17.50;99.90
11538;DHT22;50159;49.426;11.182;2023-07-02T02:23:50;17.40;99.90
11538;DHT22;50159;49.426;11.182;2023-07-02T02:26:17;17.40;99.90
11538;DHT22;50159;49.426;11.182;2023-07-02T02:28:43;17.40;99.90
11538;DHT22;50159;49.426;11.182;2023-07-02T02:31:10;17.30;99.90
11538;DHT22;50159;49.426;11.182;2023-07-02T02:33:37;17.30;99.90
11538;DHT22;50159;49.426;11.182;2023-07-02T02:36:05;17.30;99.90
11538;DHT22;50159;49.426;11.182;2023-07-02T02:38:31;17.30;99.90
11538;DHT22;50159;49.426;11.182;2023-07-02T02:40:58;17.30;99.90
11538;DHT22;50159;49.426;11.182;2023-07-02T02:43:25;17.30;99.90
11538;DHT22;50159;49.426;11.182;2023-07-02T02:45:52;17.20;99.90
11538;DHT22;50159;49.426;11.182;2023-07-02T02:48:18;17.20;99.90
11538;DHT22;50159;49.426;11.182;2023-07-02T02:50:45;17.20;99.90
11538;DHT22;50159;49.426;11.182;2023-07-02T02:53:12;17.10;99.90
11538;DHT22;50159;49.426;11.182;2023-07-02T02:55:39;17.10;99.90
11538;DHT22;50159;49.426;11.182;2023-07-02T02:58:06;17.10;99.90
11538;DHT22;50159;49.426;11.182;2023-07-02T03:00:33;17.00;99.90
11538;DHT22;50159;49.426;11.182;2023-07-02T03:03:00;16.90;99.90
11538;DHT22;50159;49.426;11.182;2023-07-02T03:05:27;16.90;99.90
11538;DHT22;50159;49.426;11.182;2023-07-02T03:07:54;16.90;99.90
11538;DHT22;50159;49.426;11.182;2023-07-02T03:10:21;16.80;99.90
11538;DHT22;50159;49.426;11.182;2023-07-02T03:12:47;16.80;99.90
11538;DHT22;50159;49.426;11.182;2023-07-02T03:15:14;16.80;99.90
11538;DHT22;50159;49.426;11.182;2023-07-02T03:17:41;16.80;99.90
11538;DHT22;50159;49.426;11.182;2023-07-02T03:20:08;16.70;99.90
11538;DHT22;50159;49.426;11.182;2023-07-02T03:22:35;16.70;99.90
11538;DHT22;50159;49.426;11.182;2023-07-02T03:25:02;16.70;99.90
11538;DHT22;50159;49.426;11.182;2023-07-02T03:27:29;16.70;99.90
11538;DHT22;50159;49.426;11.182;2023-07-02T03:29:56;16.70;99.90
11538;DHT22;50159;49.426;11.182;2023-07-02T03:32:22;16.70;99.90
11538;DHT22;50159;49.426;11.182;2023-07-02T03:34:49;16.70;99.90
11538;DHT22;50159;49.426;11.182;2023-07-02T03:37:16;16.70;99.90
11538;DHT22;50159;49.426;11.182;2023-07-02T03:39:42;16.70;99.90
11538;DHT22;50159;49.426;11.182;2023-07-02T03:42:09;16.70;99.90
11538;DHT22;50159;49.426;11.182;2023-07-02T03:44:36;16.70;99.90
11538;DHT22;50159;49.426;11.182;2023-07-02T03:47:03;16.70;99.90
11538;DHT22;50159;49.426;11.182;2023-07-02T03:49:29;16.70;99.90
11538;DHT22;50159;49.426;11.182;2023-07-02T03:51:56;16.70;99.90
11538;DHT22;50159;49.426;11.182;2023-07-02T03:54:23;16.70;99.90
11538;DHT22;50159;49.426;11.182;2023-07-02T03:56:49;16.70;99.90
11538;DHT22;50159;49.426;11.182;2023-07-02T03:59:16;16.70;99.90
11538;DHT22;50159;49.426;11.182;2023-07-02T04:01:43;16.70;99.90
11538;DHT22;50159;49.426;11.182;2023-07-02T04:04:10;16.80;99.90
11538;DHT22;50159;49.426;11.182;2023-07-02T04:06:38;16.80;99.90
11538;DHT22;50159;49.426;11.182;2023-07-02T04:09:04;16.80;99.90
11538;DHT22;50159;49.426;11.182;2023-07-02T04:11:31;16.80;99.90
11538;DHT22;50159;49.426;11.182;2023-07-02T04:13:58;16.80;99.90
11538;DHT22;50159;49.426;11.182;2023-07-02T04:16:25;16.80;99.90
11538;DHT22;50159;49.426;11.182;2023-07-02T04:18:51;16.70;99.90
11538;DHT22;50159;49.426;11.182;2023-07-02T04:21:18;16.70;99.90
11538;DHT22;50159;49.426;11.182;2023-07-02T04:23:45;16.70;99.90
11538;DHT22;50159;49.426;11.182;2023-07-02T04:26:12;16.70;99.90
11538;DHT22;50159;49.426;11.182;2023-07-02T04:28:59;16.60;99.90
11538;DHT22;50159;49.426;11.182;2023-07-02T04:31:25;16.60;99.90
11538;DHT22;50159;49.426;11.182;2023-07-02T04:33:53;16.60;99.90
11538;DHT22;50159;49.426;11.182;2023-07-02T04:36:20;16.70;99.90
11538;DHT22;50159;49.426;11.182;2023-07-02T04:38:46;16.70;99.90
11538;DHT22;50159;49.426;11.182;2023-07-02T04:41:13;16.70;99.90
11538;DHT22;50159;49.426;11.182;2023-07-02T04:43:40;16.70;99.90
11538;DHT22;50159;49.426;11.182;2023-07-02T04:46:07;16.70;99.90
11538;DHT22;50159;49.426;11.182;2023-07-02T04:48:34;16.80;99.90
11538;DHT22;50159;49.426;11.182;2023-07-02T04:51:01;16.80;99.90
11538;DHT22;50159;49.426;11.182;2023-07-02T04:53:27;16.80;99.90
11538;DHT22;50159;49.426;11.182;2023-07-02T04:55:54;16.90;99.90
11538;DHT22;50159;49.426;11.182;2023-07-02T04:58:23;16.90;99.90
11538;DHT22;50159;49.426;11.182;2023-07-02T05:00:50;16.90;99.90
11538;DHT22;50159;49.426;11.182;2023-07-02T05:03:17;16.90;99.90
11538;DHT22;50159;49.426;11.182;2023-07-02T05:05:44;16.90;99.90
11538;DHT22;50159;49.426;11.182;2023-07-02T05:08:11;16.90;99.90
11538;DHT22;50159;49.426;11.182;2023-07-02T05:10:37;16.90;99.90
11538;DHT22;50159;49.426;11.182;2023-07-02T05:13:04;16.90;99.90
11538;DHT22;50159;49.426;11.182;2023-07-02T05:15:31;17.00;99.90
11538;DHT22;50159;49.426;11.182;2023-07-02T05:17:57;17.00;99.90
11538;DHT22;50159;49.426;11.182;2023-07-02T05:20:24;17.00;99.90
11538;DHT22;50159;49.426;11.182;2023-07-02T05:22:51;17.00;99.90
11538;DHT22;50159;49.426;11.182;2023-07-02T05:25:18;16.90;99.90
11538;DHT22;50159;49.426;11.182;2023-07-02T05:27:44;16.90;99.90
11538;DHT22;50159;49.426;11.182;2023-07-02T05:30:11;16.90;99.90
11538;DHT22;50159;49.426;11.182;2023-07-02T05:32:38;16.90;99.90
11538;DHT22;50159;49.426;11.182;2023-07-02T05:35:06;16.90;99.90
11538;DHT22;50159;49.426;11.182;2023-07-02T05:37:33;16.90;99.90
11538;DHT22;50159;49.426;11.182;2023-07-02T05:39:59;16.90;99.90
11538;DHT22;50159;49.426;11.182;2023-07-02T05:42:26;16.90;99.90
11538;DHT22;50159;49.426;11.182;2023-07-02T05:44:53;17.00;99.90
11538;DHT22;50159;49.426;11.182;2023-07-02T05:47:20;17.00;99.90
11538;DHT22;50159;49.426;11.182;2023-07-02T05:49:46;17.00;99.90
11538;DHT22;50159;49.426;11.182;2023-07-02T05:52:13;17.00;99.90
11538;DHT22;50159;49.426;11.182;2023-07-02T05:54:40;17.00;99.90
11538;DHT22;50159;49.426;11.182;2023-07-02T05:57:07;17.10;99.90
11538;DHT22;50159;49.426;11.182;2023-07-02T05:59:34;17.10;99.90
11538;DHT22;50159;49.426;11.182;2023-07-02T06:02:01;17.10;99.90
11538;DHT22;50159;49.426;11.182;2023-07-02T06:04:27;17.10;99.90
11538;DHT22;50159;49.426;11.182;2023-07-02T06:06:54;17.10;99.90
11538;DHT22;50159;49.426;11.182;2023-07-02T06:09:21;17.20;99.90
11538;DHT22;50159;49.426;11.182;2023-07-02T06:11:48;17.20;99.90
11538;DHT22;50159;49.426;11.182;2023-07-02T06:14:15;17.20;99.90
11538;DHT22;50159;49.426;11.182;2023-07-02T06:16:41;17.30;99.90
11538;DHT22;50159;49.426;11.182;2023-07-02T06:19:09;17.30;99.90
11538;DHT22;50159;49.426;11.182;2023-07-02T06:21:36;17.50;99.90
11538;DHT22;50159;49.426;11.182;2023-07-02T06:24:03;17.50;99.90
11538;DHT22;50159;49.426;11.182;2023-07-02T06:26:30;17.60;99.90
11538;DHT22;50159;49.426;11.182;2023-07-02T06:28:58;17.80;99.90
11538;DHT22;50159;49.426;11.182;2023-07-02T06:31:25;17.90;99.90
11538;DHT22;50159;49.426;11.182;2023-07-02T06:33:52;18.00;99.00
11538;DHT22;50159;49.426;11.182;2023-07-02T06:36:19;18.00;97.30
11538;DHT22;50159;49.426;11.182;2023-07-02T06:38:46;18.00;96.10
11538;DHT22;50159;49.426;11.182;2023-07-02T06:41:12;18.00;95.10
11538;DHT22;50159;49.426;11.182;2023-07-02T06:43:41;18.10;94.20
11538;DHT22;50159;49.426;11.182;2023-07-02T06:46:13;18.30;93.60
11538;DHT22;50159;49.426;11.182;2023-07-02T06:48:39;18.60;93.30
11538;DHT22;50159;49.426;11.182;2023-07-02T06:51:06;18.80;92.20
11538;DHT22;50159;49.426;11.182;2023-07-02T06:53:35;18.90;91.00
11538;DHT22;50159;49.426;11.182;2023-07-02T06:56:02;19.00;90.30
11538;DHT22;50159;49.426;11.182;2023-07-02T06:58:30;19.10;89.70
11538;DHT22;50159;49.426;11.182;2023-07-02T07:00:57;19.30;89.30
11538;DHT22;50159;49.426;11.182;2023-07-02T07:03:24;19.40;89.60
11538;DHT22;50159;49.426;11.182;2023-07-02T07:05:51;19.50;86.50
11538;DHT22;50159;49.426;11.182;2023-07-02T07:08:17;19.50;83.80
11538;DHT22;50159;49.426;11.182;2023-07-02T07:10:44;19.40;82.50
11538;DHT22;50159;49.426;11.182;2023-07-02T07:13:12;19.30;81.50
11538;DHT22;50159;49.426;11.182;2023-07-02T07:15:39;19.10;79.50
11538;DHT22;50159;49.426;11.182;2023-07-02T07:18:08;19.00;77.40
11538;DHT22;50159;49.426;11.182;2023-07-02T07:20:35;19.00;77.50
11538;DHT22;50159;49.426;11.182;2023-07-02T07:23:03;18.90;77.40
11538;DHT22;50159;49.426;11.182;2023-07-02T07:25:30;18.80;76.80
11538;DHT22;50159;49.426;11.182;2023-07-02T07:27:57;18.80;77.50
11538;DHT22;50159;49.426;11.182;2023-07-02T07:30:24;18.80;77.70
11538;DHT22;50159;49.426;11.182;2023-07-02T07:32:51;18.90;76.40
11538;DHT22;50159;49.426;11.182;2023-07-02T07:35:21;19.10;78.00
11538;DHT22;50159;49.426;11.182;2023-07-02T07:37:49;19.30;77.00
11538;DHT22;50159;49.426;11.182;2023-07-02T07:40:16;19.30;75.80
11538;DHT22;50159;49.426;11.182;2023-07-02T07:42:43;19.30;75.70
11538;DHT22;50159;49.426;11.182;2023-07-02T07:45:10;19.30;75.80
11538;DHT22;50159;49.426;11.182;2023-07-02T07:47:38;19.30;75.80
11538;DHT22;50159;49.426;11.182;2023-07-02T07:50:07;19.30;75.50
11538;DHT22;50159;49.426;11.182;2023-07-02T07:52:41;19.30;76.00
11538;DHT22;50159;49.426;11.182;2023-07-02T07:55:08;19.30;75.90
11538;DHT22;50159;49.426;11.182;2023-07-02T07:57:36;19.40;75.60
11538;DHT22;50159;49.426;11.182;2023-07-02T08:00:04;19.50;73.00
11538;DHT22;50159;49.426;11.182;2023-07-02T08:02:34;19.70;74.80
11538;DHT22;50159;49.426;11.182;2023-07-02T08:05:01;20.00;74.50
11538;DHT22;50159;49.426;11.182;2023-07-02T08:07:29;20.20;72.50
11538;DHT22;50159;49.426;11.182;2023-07-02T08:09:55;20.30;70.10
11538;DHT22;50159;49.426;11.182;2023-07-02T08:12:22;20.50;69.90
11538;DHT22;50159;49.426;11.182;2023-07-02T08:14:49;20.60;70.30
11538;DHT22;50159;49.426;11.182;2023-07-02T08:17:16;20.80;70.50
11538;DHT22;50159;49.426;11.182;2023-07-02T08:19:42;20.90;66.20
11538;DHT22;50159;49.426;11.182;2023-07-02T08:22:09;21.10;65.40
11538;DHT22;50159;49.426;11.182;2023-07-02T08:24:36;21.00;65.40
11538;DHT22;50159;49.426;11.182;2023-07-02T08:27:03;20.90;64.40
11538;DHT22;50159;49.426;11.182;2023-07-02T08:29:30;20.70;65.00
11538;DHT22;50159;49.426;11.182;2023-07-02T08:31:57;20.60;63.90
11538;DHT22;50159;49.426;11.182;2023-07-02T08:34:24;20.60;65.70
11538;DHT22;50159;49.426;11.182;2023-07-02T08:36:51;20.50;66.00
11538;DHT22;50159;49.426;11.182;2023-07-02T08:39:18;20.30;66.00
11538;DHT22;50159;49.426;11.182;2023-07-02T08:41:46;20.20;66.40
11538;DHT22;50159;49.426;11.182;2023-07-02T08:44:13;20.30;65.40
11538;DHT22;50159;49.426;11.182;2023-07-02T08:46:41;20.50;64.40
11538;DHT22;50159;49.426;11.182;2023-07-02T08:49:08;20.80;62.90
11538;DHT22;50159;49.426;11.182;2023-07-02T08:51:35;21.00;61.20
11538;DHT22;50159;49.426;11.182;2023-07-02T08:54:02;21.40;61.30
11538;DHT22;50159;49.426;11.182;2023-07-02T08:56:30;21.50;59.30
11538;DHT22;50159;49.426;11.182;2023-07-02T08:58:56;21.50;59.30
11538;DHT22;50159;49.426;11.182;2023-07-02T09:01:23;21.30;59.30
11538;DHT22;50159;49.426;11.182;2023-07-02T09:03:50;21.20;59.20
11538;DHT22;50159;49.426;11.182;2023-07-02T09:06:18;21.40;61.70
11538;DHT22;50159;49.426;11.182;2023-07-02T09:08:45;21.60;59.90
11538;DHT22;50159;49.426;11.182;2023-07-02T09:11:13;21.80;57.80
11538;DHT22;50159;49.426;11.182;2023-07-02T09:13:49;22.00;57.10
11538;DHT22;50159;49.426;11.182;2023-07-02T09:19:15;22.40;56.90
11538;DHT22;50159;49.426;11.182;2023-07-02T09:21:44;22.20;57.90
11538;DHT22;50159;49.426;11.182;2023-07-02T09:24:16;21.90;57.40
11538;DHT22;50159;49.426;11.182;2023-07-02T09:26:48;21.60;58.60
11538;DHT22;50159;49.426;11.182;2023-07-02T09:29:23;21.40;59.70
11538;DHT22;50159;49.426;11.182;2023-07-02T09:31:51;21.60;60.00
11538;DHT22;50159;49.426;11.182;2023-07-02T09:34:37;22.00;59.20
11538;DHT22;50159;49.426;11.182;2023-07-02T09:37:05;22.40;58.30
11538;DHT22;50159;49.426;11.182;2023-07-02T09:39:34;22.90;58.20
11538;DHT22;50159;49.426;11.182;2023-07-02T09:42:03;23.00;56.50
11538;DHT22;50159;49.426;11.182;2023-07-02T09:44:32;22.70;55.60
11538;DHT22;50159;49.426;11.182;2023-07-02T09:47:07;22.60;55.70
11538;DHT22;50159;49.426;11.182;2023-07-02T09:49:36;22.60;55.40
11538;DHT22;50159;49.426;11.182;2023-07-02T09:52:07;23.00;56.10
11538;DHT22;50159;49.426;11.182;2023-07-02T09:54:35;23.30;55.20
11538;DHT22;50159;49.426;11.182;2023-07-02T09:57:03;23.20;52.20
11538;DHT22;50159;49.426;11.182;2023-07-02T09:59:30;23.00;53.90
11538;DHT22;50159;49.426;11.182;2023-07-02T10:01:57;22.60;54.00
11538;DHT22;50159;49.426;11.182;2023-07-02T10:04:25;22.30;53.90
11538;DHT22;50159;49.426;11.182;2023-07-02T10:06:54;22.40;54.10
11538;DHT22;50159;49.426;11.182;2023-07-02T10:09:41;22.70;52.50
11538;DHT22;50159;49.426;11.182;2023-07-02T10:12:19;22.70;52.40
11538;DHT22;50159;49.426;11.182;2023-07-02T10:14:47;23.00;52.80
11538;DHT22;50159;49.426;11.182;2023-07-02T10:19:52;22.70;53.10
11538;DHT22;50159;49.426;11.182;2023-07-02T10:22:19;22.50;52.80
11538;DHT22;50159;49.426;11.182;2023-07-02T10:24:56;22.20;53.30
11538;DHT22;50159;49.426;11.182;2023-07-02T10:30:02;22.40;55.90
11538;DHT22;50159;49.426;11.182;2023-07-02T10:32:30;22.70;55.50
11538;DHT22;50159;49.426;11.182;2023-07-02T10:34:58;22.70;52.50
11538;DHT22;50159;49.426;11.182;2023-07-02T10:37:26;22.70;52.40
11538;DHT22;50159;49.426;11.182;2023-07-02T10:39:53;22.90;52.40
11538;DHT22;50159;49.426;11.182;2023-07-02T10:42:20;23.10;52.90
11538;DHT22;50159;49.426;11.182;2023-07-02T10:44:51;23.10;52.30
11538;DHT22;50159;49.426;11.182;2023-07-02T10:47:19;23.10;52.10
11538;DHT22;50159;49.426;11.182;2023-07-02T10:49:45;23.00;51.30
11538;DHT22;50159;49.426;11.182;2023-07-02T10:52:12;22.90;52.00
11538;DHT22;50159;49.426;11.182;2023-07-02T10:54:40;23.10;51.90
11538;DHT22;50159;49.426;11.182;2023-07-02T10:57:08;23.40;50.90
11538;DHT22;50159;49.426;11.182;2023-07-02T10:59:35;23.50;49.90
11538;DHT22;50159;49.426;11.182;2023-07-02T11:02:02;23.60;50.30
11538;DHT22;50159;49.426;11.182;2023-07-02T11:04:30;23.60;50.30
11538;DHT22;50159;49.426;11.182;2023-07-02T11:06:58;23.70;50.70
11538;DHT22;50159;49.426;11.182;2023-07-02T11:09:25;24.00;49.50
11538;DHT22;50159;49.426;11.182;2023-07-02T11:12:00;24.20;47.40
11538;DHT22;50159;49.426;11.182;2023-07-02T11:16:56;24.70;48.60
11538;DHT22;50159;49.426;11.182;2023-07-02T11:19:23;24.80;46.10
11538;DHT22;50159;49.426;11.182;2023-07-02T11:21:55;24.90;47.20
11538;DHT22;50159;49.426;11.182;2023-07-02T11:24:31;24.90;45.10
11538;DHT22;50159;49.426;11.182;2023-07-02T11:27:00;24.80;45.50
11538;DHT22;50159;49.426;11.182;2023-07-02T11:29:31;24.80;42.60
11538;DHT22;50159;49.426;11.182;2023-07-02T11:32:11;24.90;45.90
11538;DHT22;50159;49.426;11.182;2023-07-02T11:34:38;25.10;44.80
11538;DHT22;50159;49.426;11.182;2023-07-02T11:37:06;25.30;44.10
11538;DHT22;50159;49.426;11.182;2023-07-02T11:39:33;25.50;44.20
11538;DHT22;50159;49.426;11.182;2023-07-02T11:42:00;25.10;41.30
11538;DHT22;50159;49.426;11.182;2023-07-02T11:44:26;24.70;42.30
11538;DHT22;50159;49.426;11.182;2023-07-02T11:46:53;24.50;43.80
11538;DHT22;50159;49.426;11.182;2023-07-02T11:49:20;24.20;43.50
11538;DHT22;50159;49.426;11.182;2023-07-02T11:51:47;24.30;42.90
11538;DHT22;50159;49.426;11.182;2023-07-02T11:54:15;24.40;43.60
11538;DHT22;50159;49.426;11.182;2023-07-02T11:56:44;24.70;42.90
11538;DHT22;50159;49.426;11.182;2023-07-02T11:59:11;24.80;43.40
11538;DHT22;50159;49.426;11.182;2023-07-02T12:01:37;24.90;43.20
11538;DHT22;50159;49.426;11.182;2023-07-02T12:04:04;25.10;43.40
11538;DHT22;50159;49.426;11.182;2023-07-02T12:06:32;25.10;42.50
11538;DHT22;50159;49.426;11.182;2023-07-02T12:08:59;25.20;42.90
11538;DHT22;50159;49.426;11.182;2023-07-02T12:11:25;25.20;43.40
11538;DHT22;50159;49.426;11.182;2023-07-02T12:13:52;25.10;43.70
11538;DHT22;50159;49.426;11.182;2023-07-02T12:16:19;24.80;43.50
11538;DHT22;50159;49.426;11.182;2023-07-02T12:18:46;24.90;43.80
11538;DHT22;50159;49.426;11.182;2023-07-02T12:21:12;25.10;42.90
11538;DHT22;50159;49.426;11.182;2023-07-02T12:23:39;25.10;43.90
11538;DHT22;50159;49.426;11.182;2023-07-02T12:26:06;25.30;45.50
11538;DHT22;50159;49.426;11.182;2023-07-02T12:28:32;25.50;43.50
11538;DHT22;50159;49.426;11.182;2023-07-02T12:30:59;25.50;44.40
11538;DHT22;50159;49.426;11.182;2023-07-02T12:33:26;25.30;44.10
11538;DHT22;50159;49.426;11.182;2023-07-02T12:35:52;25.30;42.80
11538;DHT22;50159;49.426;11.182;2023-07-02T12:38:19;25.50;43.50
11538;DHT22;50159;49.426;11.182;2023-07-02T12:40:46;25.50;42.50
11538;DHT22;50159;49.426;11.182;2023-07-02T12:43:15;25.70;43.10
11538;DHT22;50159;49.426;11.182;2023-07-02T12:45:41;25.50;43.00
11538;DHT22;50159;49.426;11.182;2023-07-02T12:48:08;25.20;41.90
11538;DHT22;50159;49.426;11.182;2023-07-02T12:50:37;25.20;42.40
11538;DHT22;50159;49.426;11.182;2023-07-02T12:53:05;25.10;43.90
11538;DHT22;50159;49.426;11.182;2023-07-02T12:55:32;25.10;44.30
11538;DHT22;50159;49.426;11.182;2023-07-02T12:57:58;25.40;43.80
11538;DHT22;50159;49.426;11.182;2023-07-02T13:00:25;25.50;43.60
11538;DHT22;50159;49.426;11.182;2023-07-02T13:02:52;25.40;42.40
11538;DHT22;50159;49.426;11.182;2023-07-02T13:05:30;25.20;42.10
11538;DHT22;50159;49.426;11.182;2023-07-02T13:07:57;24.90;42.20
11538;DHT22;50159;49.426;11.182;2023-07-02T13:10:24;24.80;43.40
11538;DHT22;50159;49.426;11.182;2023-07-02T13:12:51;24.80;44.80
11538;DHT22;50159;49.426;11.182;2023-07-02T13:15:17;24.70;44.10
11538;DHT22;50159;49.426;11.182;2023-07-02T13:17:46;24.70;43.80
11538;DHT22;50159;49.426;11.182;2023-07-02T13:20:13;24.60;43.70
11538;DHT22;50159;49.426;11.182;2023-07-02T13:22:39;24.50;44.40
11538;DHT22;50159;49.426;11.182;2023-07-02T13:25:07;24.40;45.00
11538;DHT22;50159;49.426;11.182;2023-07-02T13:27:34;24.40;45.20
11538;DHT22;50159;49.426;11.182;2023-07-02T13:30:01;24.40;45.50
11538;DHT22;50159;49.426;11.182;2023-07-02T13:32:28;24.30;44.70
11538;DHT22;50159;49.426;11.182;2023-07-02T13:34:57;24.30;45.40
11538;DHT22;50159;49.426;11.182;2023-07-02T13:37:24;24.60;47.10
11538;DHT22;50159;49.426;11.182;2023-07-02T13:39:51;24.80;45.20
11538;DHT22;50159;49.426;11.182;2023-07-02T13:42:18;24.80;44.30
11538;DHT22;50159;49.426;11.182;2023-07-02T13:44:45;24.90;41.90
11538;DHT22;50159;49.426;11.182;2023-07-02T13:47:12;24.90;42.90
11538;DHT22;50159;49.426;11.182;2023-07-02T13:49:38;24.60;42.60
11538;DHT22;50159;49.426;11.182;2023-07-02T13:52:05;24.70;43.70
11538;DHT22;50159;49.426;11.182;2023-07-02T13:54:32;25.30;44.90
11538;DHT22;50159;49.426;11.182;2023-07-02T13:57:03;25.60;42.50
11538;DHT22;50159;49.426;11.182;2023-07-02T13:59:30;25.50;41.10
11538;DHT22;50159;49.426;11.182;2023-07-02T14:01:56;25.30;42.90
11538;DHT22;50159;49.426;11.182;2023-07-02T14:04:24;25.50;43.90
11538;DHT22;50159;49.426;11.182;2023-07-02T14:06:50;25.90;44.20
11538;DHT22;50159;49.426;11.182;2023-07-02T14:09:17;25.90;41.10
11538;DHT22;50159;49.426;11.182;2023-07-02T14:11:44;25.90;42.30
11538;DHT22;50159;49.426;11.182;2023-07-02T14:14:11;26.20;42.40
11538;DHT22;50159;49.426;11.182;2023-07-02T14:16:38;26.70;42.20
11538;DHT22;50159;49.426;11.182;2023-07-02T14:19:05;27.10;41.00
11538;DHT22;50159;49.426;11.182;2023-07-02T14:21:32;27.20;39.30
11538;DHT22;50159;49.426;11.182;2023-07-02T14:23:59;27.40;40.60
11538;DHT22;50159;49.426;11.182;2023-07-02T14:26:26;27.60;38.50
11538;DHT22;50159;49.426;11.182;2023-07-02T14:28:53;27.30;35.20
11538;DHT22;50159;49.426;11.182;2023-07-02T14:31:19;26.70;36.50
11538;DHT22;50159;49.426;11.182;2023-07-02T14:33:46;26.70;37.80
11538;DHT22;50159;49.426;11.182;2023-07-02T14:36:13;26.50;38.50
11538;DHT22;50159;49.426;11.182;2023-07-02T14:38:40;26.20;37.70
11538;DHT22;50159;49.426;11.182;2023-07-02T14:41:06;26.50;38.80
11538;DHT22;50159;49.426;11.182;2023-07-02T14:43:34;27.20;38.90
11538;DHT22;50159;49.426;11.182;2023-07-02T14:46:02;27.50;39.70
11538;DHT22;50159;49.426;11.182;2023-07-02T14:48:30;29.00;37.90
11538;DHT22;50159;49.426;11.182;2023-07-02T14:50:58;30.90;34.40
11538;DHT22;50159;49.426;11.182;2023-07-02T14:53:27;32.00;31.50
11538;DHT22;50159;49.426;11.182;2023-07-02T14:55:57;31.30;31.40
11538;DHT22;50159;49.426;11.182;2023-07-02T14:58:26;30.40;32.40
11538;DHT22;50159;49.426;11.182;2023-07-02T15:00:55;29.10;32.70
11538;DHT22;50159;49.426;11.182;2023-07-02T15:03:23;28.00;36.30
11538;DHT22;50159;49.426;11.182;2023-07-02T15:05:51;27.10;38.40
11538;DHT22;50159;49.426;11.182;2023-07-02T15:08:20;27.50;40.00
11538;DHT22;50159;49.426;11.182;2023-07-02T15:10:50;29.40;38.20
11538;DHT22;50159;49.426;11.182;2023-07-02T15:13:18;31.20;33.20
11538;DHT22;50159;49.426;11.182;2023-07-02T15:15:49;32.00;31.40
11538;DHT22;50159;49.426;11.182;2023-07-02T15:18:16;31.10;31.40
11538;DHT22;50159;49.426;11.182;2023-07-02T15:20:44;29.80;32.80
11538;DHT22;50159;49.426;11.182;2023-07-02T15:23:12;28.50;36.10
11538;DHT22;50159;49.426;11.182;2023-07-02T15:25:39;27.60;37.20
11538;DHT22;50159;49.426;11.182;2023-07-02T15:28:06;27.00;39.30
11538;DHT22;50159;49.426;11.182;2023-07-02T15:30:36;26.50;39.40